CDT,Max TemperatureF,Mean TemperatureF,Min TemperatureF,Max Dew PointF,MeanDew PointF,Min DewpointF,Max Humidity, Mean Humidity, Min Humidity, Max Sea Level PressureIn, Mean Sea Level PressureIn, Min Sea Level PressureIn, Max VisibilityMiles, Mean VisibilityMiles, Min VisibilityMiles, Max Wind SpeedMPH, Mean Wind SpeedMPH, Max Gust SpeedMPH,PrecipitationIn, CloudCover, Events, WindDirDegrees
2013-4-1,50,44,37,40,30,20,81,60,34,30.26,30.16,29.97,10,10,10,12,6,17,0.00,5,,338
2013-4-2,48,40,32,22,20,17,60,48,30,30.35,30.29,30.25,10,10,10,10,5,,0.00,4,,37
2013-4-3,52,41,30,23,20,18,67,44,29,30.37,30.28,30.20,10,10,10,14,6,18,0.00,1,,59
2013-4-4,59,46,34,26,24,20,70,44,25,30.21,30.13,30.06,10,10,10,12,5,,0.00,4,,10
2013-4-5,70,52,36,38,31,26,68,44,26,30.19,30.10,30.00,10,10,7,10,3,,0.00,0,,223
2013-4-6,74,64,54,45,39,33,55,41,29,29.99,29.87,29.75,10,10,10,18,10,31,0.00,2,,193
2013-4-7,77,64,52,59,51,44,100,67,31,29.91,29.85,29.78,10,9,2,16,7,30,0.29,4,Rain-Thunderstorm,178
2013-4-8,75,66,59,60,57,55,91,72,56,29.83,29.78,29.75,10,10,10,13,10,23,0.00,6,,167
2013-4-9,77,69,62,63,60,58,93,77,57,29.89,29.83,29.75,10,10,10,18,12,24,0.00,6,,152
2013-4-10,77,60,42,66,59,42,100,92,67,29.81,29.73,29.60,10,8,0,24,9,39,1.19,6,Fog-Rain-Thunderstorm,273
2013-4-11,45,40,35,43,37,30,100,93,59,29.81,29.76,29.72,10,10,8,15,8,23,0.00,7,Rain,262
2013-4-12,51,42,33,34,29,26,89,63,45,30.05,29.91,29.78,10,10,10,15,7,26,0.00,1,,275
2013-4-13,68,51,34,43,36,32,92,59,34,30.09,29.99,29.86,10,10,10,14,5,20,0.00,1,,186
2013-4-14,77,64,50,58,48,42,84,57,29,29.85,29.69,29.56,10,10,10,26,14,37,0.00,1,,157
2013-4-15,73,62,51,64,56,48,100,93,69,29.90,29.82,29.72,10,6,1,16,8,24,0.00,8,,76
2013-4-16,50,48,45,52,47,46,100,100,100,30.11,30.03,29.92,10,5,1,15,10,17,0.02,8,Rain,28
2013-4-17,84,65,46,67,54,18,100,84,26,30.07,29.94,29.66,10,5,0,23,8,38,0.00,5,Fog,129
2013-4-18,73,56,39,67,53,31,100,93,72,29.88,29.68,29.55,10,8,1,23,13,37,1.46,8,Rain-Thunderstorm,233
2013-4-19,52,43,35,32,25,18,75,56,26,30.11,29.96,29.86,10,10,10,18,12,34,0.00,5,Snow,268
2013-4-20,62,46,30,35,30,26,95,54,29,30.27,30.21,30.12,10,10,5,8,3,,0.00,1,,65
2013-4-21,68,56,45,39,36,32,71,45,26,30.35,30.26,30.18,10,10,10,16,10,24,0.00,4,,138
2013-4-22,71,57,43,43,37,31,82,47,24,30.23,30.09,29.95,10,10,9,15,8,22,0.00,2,Rain,154
2013-4-23,58,48,36,55,46,36,100,96,60,30.08,29.97,29.90,10,6,1,18,9,20,1.03,8,Rain-Thunderstorm,349
2013-4-24,50,42,34,37,34,25,100,86,40,30.29,30.15,30.06,10,10,9,15,10,21,0.00,7,,310
2013-4-25,68,51,36,40,34,29,75,43,28,30.37,30.30,30.25,10,10,10,13,7,17,0.00,0,,247
2013-4-26,57,52,46,49,47,38,100,93,49,30.38,30.27,30.21,10,9,5,16,8,28,0.77,7,Rain,128
2013-4-27,52,49,46,52,50,46,100,100,100,30.24,30.06,29.98,10,9,2,9,6,,0.37,8,Rain,48
2013-4-28,65,56,48,53,50,48,100,90,58,30.04,29.97,29.90,10,9,4,8,5,,0.00,6,,263
2013-4-29,83,64,47,62,57,48,100,69,44,29.92,29.85,29.77,10,10,10,14,7,22,0.00,0,,180
2013-4-30,83,72,61,61,53,46,88,52,28,29.94,29.85,29.79,10,10,10,15,10,25,0.00,0,,167